Hovedside
METAR-TAF:

METAR-TAF

Lufthavner :

N'Djamena internasjonale lufthavn

N'Djamena, Tsjad

breddegrad: 12-08N, lengdegrad: 015-02E, høyde over havet: 295 m

Gjeldene værobservasjon

Denne rapporten ble laget for 50 minutter siden, klokken 23:00 UTC
Vind 8 kt fra Øst-nordøst
Temperatur 23°C
Luftfuktighet 89%
Trykk 1013 hPa
Sikt 10 km eller mer
Spredte skyer i en høyde av 3300 ft

METAR: FTTJ 192300Z 07008KT 9999 SCT033 23/21 Q1013 NOSIG

Tid: 00:50 (23:50 UTC)

Varsel

Denne rapporten ble laget for 50 minutter siden, klokken 23:00 UTC
Varsel gyldig fra 20. klokken 00 UTC til 21. klokken 06 UTC
Vind 8 kt fra Øst
Sikt: 8000 m
Få skyer i en høyde av 3000 ft
Blir
fra 20. klokken 06 UTC til 20. klokken 08 UTC
Vind 10 kt fra Sørvest
Midlertidig
fra 20. klokken 14 UTC til 20. klokken 23 UTC
Sikt: 4000 m
torden, regn

TAF: FTTJ 192300Z 2000/2106 09008KT 8000 FEW030 BECMG 2006/2008 22010KT TEMPO 2014/2023 4000 TSRA

Værobservasjoner og værvarsel for over 4000 flyplasser (METAR- og TAF-rapporter).

Tilgjengelige stasjoner er representert av de røde og gule prikkene på kartet.

Hold musepekeren over prikken for å se navnet på stasjonen.

Klikk så for å se værobservasjoner og -varsler.

For å forandre kartet kan du klikke på den grønne knappen med svart kryss for å zoome inn, på den grønne knappen med strek for å zoome ut, eller på de grønne pilene for å se tilstøtende kart.


METAR-TAF: